createdAt,value
2022-10-07T00:02:35.645Z,14.90
2022-10-07T00:06:37.692Z,15.43
2022-10-07T00:10:41.680Z,12.13
2022-10-07T00:14:44.534Z,15.27
2022-10-07T00:18:48.510Z,13.45
2022-10-07T00:22:51.302Z,15.60
2022-10-07T00:26:53.413Z,18.48
2022-10-07T00:31:06.841Z,14.85
2022-10-07T00:35:09.060Z,13.10
2022-10-07T00:39:13.831Z,11.98
2022-10-07T00:43:26.342Z,13.63
2022-10-07T00:47:31.035Z,13.27
2022-10-07T00:51:35.279Z,15.45
2022-10-07T00:55:37.345Z,12.00
2022-10-07T00:59:40.175Z,12.40
2022-10-07T01:03:43.889Z,15.23
2022-10-07T01:07:48.112Z,14.40
2022-10-07T01:16:00.888Z,9.57
2022-10-07T01:20:11.949Z,8.85
2022-10-07T01:24:15.244Z,10.82
2022-10-07T01:28:27.200Z,10.73
2022-10-07T01:32:56.724Z,12.98
2022-10-07T01:37:01.368Z,13.80
2022-10-07T01:41:09.668Z,12.77
2022-10-07T01:45:21.224Z,12.43
2022-10-07T01:49:24.079Z,15.02
2022-10-07T01:53:32.375Z,14.18
2022-10-07T01:57:40.798Z,11.25
2022-10-07T02:01:53.972Z,13.10
2022-10-07T02:06:21.279Z,17.08
2022-10-07T02:10:28.420Z,15.02
2022-10-07T02:14:45.692Z,14.20
2022-10-07T02:18:52.526Z,10.80
2022-10-07T02:22:58.174Z,10.32
2022-10-07T02:27:06.243Z,9.77
2022-10-07T02:31:11.323Z,11.80
2022-10-07T02:35:38.210Z,15.48
2022-10-07T02:39:43.018Z,13.07
2022-10-07T02:43:56.287Z,15.75
2022-10-07T02:48:11.426Z,13.60
2022-10-07T02:52:19.426Z,12.98
2022-10-07T02:56:26.268Z,11.02
2022-10-07T03:00:31.887Z,13.43
2022-10-07T03:04:34.278Z,13.65
2022-10-07T03:08:36.487Z,13.07
2022-10-07T03:12:38.501Z,10.15
2022-10-07T03:16:40.714Z,11.55
2022-10-07T03:20:43.803Z,11.75
2022-10-07T03:24:45.965Z,10.57
2022-10-07T03:28:49.143Z,16.05
2022-10-07T03:32:51.755Z,14.20
2022-10-07T03:36:55.338Z,12.82
2022-10-07T03:40:58.047Z,13.15
2022-10-07T03:45:00.316Z,11.68
2022-10-07T03:49:05.431Z,12.65
2022-10-07T03:53:10.063Z,12.85
2022-10-07T03:57:31.091Z,12.98
2022-10-07T04:01:35.688Z,12.27
2022-10-07T04:05:37.933Z,15.23
2022-10-07T04:09:41.148Z,15.77
2022-10-07T04:13:43.283Z,16.10
2022-10-07T04:17:47.140Z,17.38
2022-10-07T04:21:52.949Z,14.20
2022-10-07T04:25:55.475Z,25.70
2022-10-07T04:29:57.829Z,13.05
2022-10-07T04:33:59.836Z,12.07
2022-10-07T04:38:12.816Z,12.30
2022-10-07T04:42:35.131Z,14.65
2022-10-07T04:46:37.279Z,16.92
2022-10-07T04:50:45.555Z,13.23
2022-10-07T04:54:47.670Z,15.60
2022-10-07T04:58:49.916Z,12.98
2022-10-07T05:02:54.553Z,12.93
2022-10-07T05:06:57.762Z,15.30
2022-10-07T05:11:02.154Z,17.75
2022-10-07T05:15:42.821Z,17.55
2022-10-07T05:19:45.024Z,21.73
2022-10-07T05:23:47.355Z,14.05
2022-10-07T05:27:54.855Z,13.63
2022-10-07T05:32:03.732Z,17.73
2022-10-07T05:36:09.280Z,19.83
2022-10-07T05:40:12.834Z,14.40
2022-10-07T05:44:15.362Z,22.75
2022-10-07T05:48:18.075Z,70.43
2022-10-07T05:52:24.042Z,28.60
2022-10-07T05:56:27.307Z,22.50
2022-10-07T06:00:32.381Z,22.67
2022-10-07T06:04:35.448Z,30.05
2022-10-07T06:08:37.909Z,26.13
2022-10-07T06:12:59.330Z,18.92
2022-10-07T06:17:01.807Z,23.00
2022-10-07T06:21:08.805Z,22.70
2022-10-07T06:25:12.954Z,23.80
2022-10-07T06:29:18.761Z,17.60
2022-10-07T06:33:21.048Z,17.75
2022-10-07T06:37:23.891Z,16.65
2022-10-07T06:41:26.144Z,15.05
2022-10-07T06:45:42.807Z,17.00
2022-10-07T06:49:46.489Z,16.73
2022-10-07T06:53:54.353Z,17.27
2022-10-07T06:57:57.298Z,16.80
2022-10-07T07:02:00.087Z,13.93
2022-10-07T07:06:03.656Z,19.53
2022-10-07T07:10:09.137Z,24.08
2022-10-07T07:14:15.716Z,37.45
2022-10-07T07:18:24.637Z,45.40
2022-10-07T07:22:27.455Z,54.00
2022-10-07T07:26:30.496Z,32.42
2022-10-07T07:30:34.024Z,36.73
2022-10-07T07:38:43.869Z,31.25
2022-10-07T07:42:46.286Z,33.87
2022-10-07T07:46:52.255Z,24.70
2022-10-07T07:50:56.038Z,26.17
2022-10-07T07:54:59.257Z,21.92
2022-10-07T07:59:04.011Z,20.33
2022-10-07T08:03:08.080Z,18.27
2022-10-07T08:07:13.392Z,18.77
2022-10-07T08:11:20.486Z,14.75
2022-10-07T08:15:25.065Z,16.38
2022-10-07T08:19:29.539Z,12.57
2022-10-07T08:23:32.362Z,16.48
2022-10-07T08:27:35.176Z,18.20
2022-10-07T08:31:37.400Z,25.80
2022-10-07T08:35:40.949Z,21.15
2022-10-07T08:39:43.107Z,12.47
2022-10-07T08:43:49.373Z,16.02
2022-10-07T08:47:53.341Z,12.90
2022-10-07T08:52:03.003Z,14.50
2022-10-07T08:56:20.571Z,14.02
2022-10-07T09:00:24.978Z,13.48
2022-10-07T09:04:45.043Z,9.23
2022-10-07T09:08:57.194Z,9.60
2022-10-07T09:13:05.636Z,8.60
2022-10-07T09:17:20.054Z,10.18
2022-10-07T09:25:30.434Z,9.80
2022-10-07T09:29:32.469Z,8.38
2022-10-07T09:33:42.748Z,8.27
2022-10-07T09:37:56.056Z,6.45
2022-10-07T09:41:58.069Z,8.15
2022-10-07T09:46:01.412Z,7.93
2022-10-07T09:50:03.779Z,7.43
2022-10-07T09:54:18.611Z,8.60
2022-10-07T09:58:31.383Z,9.80
2022-10-07T10:02:33.870Z,13.38
2022-10-07T10:06:36.046Z,9.52
2022-10-07T10:10:37.988Z,11.73
2022-10-07T10:15:03.476Z,12.85
2022-10-07T10:19:21.884Z,12.00
2022-10-07T10:23:34.681Z,8.93
2022-10-07T10:27:50.755Z,8.68
2022-10-07T10:32:02.126Z,10.88
2022-10-07T10:36:17.232Z,7.13
2022-10-07T10:40:35.514Z,7.18
2022-10-07T10:44:56.658Z,6.60
2022-10-07T10:49:11.188Z,7.15
2022-10-07T10:53:25.207Z,7.00
2022-10-07T10:58:00.418Z,7.63
2022-10-07T11:02:26.786Z,5.57
2022-10-07T11:06:33.010Z,6.65
2022-10-07T11:10:40.963Z,4.80
2022-10-07T11:14:51.198Z,7.00
2022-10-07T11:19:19.982Z,7.30
2022-10-07T11:23:54.481Z,8.63
2022-10-07T11:28:07.279Z,4.95
2022-10-07T11:32:18.160Z,5.25
2022-10-07T11:36:31.098Z,6.15
2022-10-07T11:40:35.254Z,5.78
2022-10-07T11:49:11.389Z,4.72
2022-10-07T11:53:22.001Z,4.28
2022-10-07T11:57:32.015Z,6.93
2022-10-07T12:01:47.354Z,5.95
2022-10-07T12:05:49.420Z,4.82
2022-10-07T12:10:07.528Z,8.35
2022-10-07T12:14:33.943Z,5.85
2022-10-07T12:18:37.398Z,6.82
2022-10-07T12:22:42.510Z,5.07
2022-10-07T12:26:46.024Z,4.00
2022-10-07T12:30:54.351Z,3.88
2022-10-07T12:34:56.548Z,4.28
2022-10-07T12:38:59.207Z,3.45
2022-10-07T12:43:22.150Z,3.80
2022-10-07T12:47:29.867Z,5.38
2022-10-07T12:51:41.506Z,3.30
2022-10-07T12:55:48.430Z,3.88
2022-10-07T12:59:59.595Z,8.80
2022-10-07T13:04:14.612Z,4.72
2022-10-07T13:08:33.239Z,5.60
2022-10-07T13:13:15.947Z,7.43
2022-10-07T13:17:28.383Z,5.43
2022-10-07T13:21:39.679Z,7.78
2022-10-07T13:25:53.264Z,5.50
2022-10-07T13:29:57.613Z,4.30
2022-10-07T13:34:14.135Z,3.58
2022-10-07T13:38:28.433Z,4.35
2022-10-07T13:42:30.995Z,5.55
2022-10-07T13:46:36.049Z,5.45
2022-10-07T13:50:38.600Z,3.38
2022-10-07T13:54:40.599Z,4.75
2022-10-07T13:58:43.312Z,5.63
2022-10-07T14:02:46.738Z,3.22
2022-10-07T14:06:56.129Z,2.00
2022-10-07T14:11:01.420Z,2.17
2022-10-07T14:15:13.308Z,3.47
2022-10-07T14:19:21.219Z,2.35
2022-10-07T14:23:31.444Z,3.28
2022-10-07T14:27:54.134Z,2.33
2022-10-07T14:32:29.053Z,4.40
2022-10-07T14:36:31.396Z,2.45
2022-10-07T14:40:33.422Z,5.13
2022-10-07T14:44:36.383Z,4.20
2022-10-07T14:48:39.216Z,2.75
2022-10-07T14:52:46.921Z,1.95
2022-10-07T14:56:49.669Z,3.97
2022-10-07T15:00:54.577Z,4.93
2022-10-07T15:04:56.759Z,3.58
2022-10-07T15:08:59.583Z,3.65
2022-10-07T15:13:04.245Z,3.00
2022-10-07T15:17:07.060Z,2.47
2022-10-07T15:21:09.206Z,2.25
2022-10-07T15:25:12.798Z,5.55
2022-10-07T15:29:15.423Z,5.57
2022-10-07T15:33:17.427Z,4.43
2022-10-07T15:37:20.422Z,4.85
2022-10-07T15:41:33.709Z,5.72
2022-10-07T15:45:36.166Z,8.07
2022-10-07T15:49:38.370Z,7.13
2022-10-07T15:53:40.416Z,7.60
2022-10-07T15:57:43.040Z,9.00
2022-10-07T16:01:45.363Z,7.30
2022-10-07T16:05:59.670Z,6.10
2022-10-07T16:10:01.876Z,7.30
2022-10-07T16:14:04.043Z,6.30
2022-10-07T16:18:06.619Z,10.73
2022-10-07T16:22:08.660Z,15.40
2022-10-07T16:26:30.680Z,8.75
2022-10-07T16:30:41.575Z,7.93
2022-10-07T16:34:44.620Z,15.50
2022-10-07T16:38:47.649Z,16.27
2022-10-07T16:42:51.188Z,20.67
2022-10-07T16:46:56.910Z,18.65
2022-10-07T16:50:59.472Z,12.07
2022-10-07T16:55:01.555Z,9.77
2022-10-07T16:59:05.983Z,10.05
2022-10-07T17:03:07.913Z,13.70
2022-10-07T17:07:10.743Z,12.82
2022-10-07T17:11:30.366Z,16.83
2022-10-07T17:15:32.380Z,13.90
2022-10-07T17:19:36.551Z,14.63
2022-10-07T17:23:38.597Z,12.43
2022-10-07T17:27:40.584Z,17.35
2022-10-07T17:31:44.719Z,17.75
2022-10-07T17:35:47.349Z,16.60
2022-10-07T17:39:49.463Z,23.55
2022-10-07T17:43:53.786Z,18.23
2022-10-07T17:47:57.612Z,44.10
2022-10-07T17:51:59.835Z,33.13
2022-10-07T17:56:03.077Z,19.33
2022-10-07T18:00:07.010Z,24.90
2022-10-07T18:04:22.520Z,14.95
2022-10-07T18:08:26.975Z,20.00
2022-10-07T18:12:47.791Z,23.63
2022-10-07T18:16:49.780Z,12.43
2022-10-07T18:20:54.662Z,15.10
2022-10-07T18:24:57.429Z,19.42
2022-10-07T18:29:01.225Z,17.40
2022-10-07T18:33:03.228Z,13.48
2022-10-07T18:37:05.242Z,15.50
2022-10-07T18:41:10.266Z,19.40
2022-10-07T18:45:12.306Z,23.73
2022-10-07T18:49:15.009Z,26.33
2022-10-07T18:53:17.102Z,33.20
2022-10-07T18:57:19.766Z,25.35
2022-10-07T19:01:24.801Z,17.10
2022-10-07T19:05:29.379Z,15.57
2022-10-07T19:09:35.343Z,14.60
2022-10-07T19:13:54.081Z,15.63
2022-10-07T19:17:56.594Z,12.85
2022-10-07T19:21:58.700Z,15.00
2022-10-07T19:26:01.863Z,15.23
2022-10-07T19:30:05.475Z,30.73
2022-10-07T19:34:11.302Z,12.07
2022-10-07T19:38:13.916Z,21.02
2022-10-07T19:42:17.146Z,16.58
2022-10-07T19:46:21.518Z,15.65
2022-10-07T19:54:25.981Z,13.43
2022-10-07T19:58:28.511Z,19.08
2022-10-07T20:02:30.764Z,12.60
2022-10-07T20:06:34.633Z,11.52
2022-10-07T20:10:38.340Z,12.60
2022-10-07T20:14:40.402Z,12.93
2022-10-07T20:18:42.753Z,9.88
2022-10-07T20:22:49.261Z,13.15
2022-10-07T20:26:51.611Z,13.32
2022-10-07T20:30:54.686Z,14.15
2022-10-07T20:34:57.095Z,24.23
2022-10-07T20:39:20.710Z,13.57
2022-10-07T20:43:22.894Z,13.52
2022-10-07T20:47:27.949Z,17.88
2022-10-07T20:51:30.478Z,24.73
2022-10-07T20:55:36.509Z,24.25
2022-10-07T20:59:39.777Z,14.88
2022-10-07T21:03:42.329Z,19.20
2022-10-07T21:07:45.009Z,17.75
2022-10-07T21:11:48.366Z,14.63
2022-10-07T21:15:50.413Z,17.33
2022-10-07T21:19:52.446Z,18.25
2022-10-07T21:23:54.570Z,17.08
2022-10-07T21:27:56.538Z,18.60
2022-10-07T21:31:58.759Z,25.65
2022-10-07T21:36:10.875Z,21.77
2022-10-07T21:40:12.854Z,28.40
2022-10-07T21:44:15.474Z,26.80
2022-10-07T21:48:17.412Z,19.73
2022-10-07T21:52:19.519Z,20.45
2022-10-07T21:56:21.848Z,21.50
2022-10-07T22:00:23.839Z,24.40
2022-10-07T22:04:29.574Z,18.73
2022-10-07T22:08:37.388Z,22.42
2022-10-07T22:12:39.466Z,25.73
2022-10-07T22:16:42.458Z,24.63
2022-10-07T22:20:44.637Z,20.15
2022-10-07T22:24:46.634Z,18.60
2022-10-07T22:28:49.733Z,20.08
2022-10-07T22:32:51.762Z,17.60
2022-10-07T22:36:54.287Z,20.42
2022-10-07T22:40:56.259Z,19.65
2022-10-07T22:44:58.257Z,20.70
2022-10-07T22:49:00.679Z,22.73
2022-10-07T22:53:02.997Z,20.90
2022-10-07T22:57:06.986Z,19.23
2022-10-07T23:01:11.831Z,16.83
2022-10-07T23:05:13.973Z,16.98
2022-10-07T23:09:15.938Z,17.77
2022-10-07T23:13:17.893Z,18.58
2022-10-07T23:17:20.410Z,19.90
2022-10-07T23:21:25.827Z,20.70
2022-10-07T23:25:28.804Z,16.38
2022-10-07T23:29:32.721Z,21.83
2022-10-07T23:33:36.272Z,19.67
2022-10-07T23:37:38.297Z,19.73
2022-10-07T23:41:40.306Z,20.48
2022-10-07T23:45:45.692Z,20.10
2022-10-07T23:49:47.718Z,19.27
2022-10-07T23:53:50.157Z,17.23
2022-10-07T23:57:52.325Z,19.38
